createdAt,value
2022-11-25T00:04:39.353Z,100140.81
2022-11-25T00:10:42.829Z,100149.09
2022-11-25T00:16:48.675Z,100155.47
2022-11-25T00:22:52.075Z,100157.47
2022-11-25T00:28:55.032Z,100149.44
2022-11-25T00:34:58.399Z,100153.63
2022-11-25T00:41:20.623Z,100155.47
2022-11-25T00:47:25.038Z,100164.84
2022-11-25T00:53:28.004Z,100165.56
2022-11-25T00:59:30.055Z,100173.19
2022-11-25T01:05:35.125Z,100182.03
2022-11-25T01:11:37.388Z,100182.94
2022-11-25T01:17:39.344Z,100193.03
2022-11-25T01:23:43.585Z,100195.13
2022-11-25T01:29:48.702Z,100196.66
2022-11-25T01:35:50.770Z,100188.94
2022-11-25T01:41:53.635Z,100189.97
2022-11-25T01:48:03.305Z,100189.50
2022-11-25T01:54:07.070Z,100194.88
2022-11-25T02:00:10.328Z,100193.09
2022-11-25T02:06:37.422Z,100197.81
2022-11-25T02:12:41.661Z,100211.41
2022-11-25T02:18:43.724Z,100228.00
2022-11-25T02:24:47.891Z,100243.16
2022-11-25T02:30:51.019Z,100243.16
2022-11-25T02:36:54.190Z,100245.84
2022-11-25T02:43:00.521Z,100256.31
2022-11-25T02:49:10.978Z,100267.38
2022-11-25T02:55:15.561Z,100266.03
2022-11-25T03:01:18.596Z,100261.25
2022-11-25T03:07:23.259Z,100265.59
2022-11-25T03:13:25.399Z,100278.59
2022-11-25T03:19:28.205Z,100289.47
2022-11-25T03:25:30.437Z,100298.25
2022-11-25T03:31:33.737Z,100306.09
2022-11-25T03:37:38.473Z,100298.09
2022-11-25T03:43:43.126Z,100299.78
2022-11-25T03:49:46.169Z,100304.28
2022-11-25T03:55:48.856Z,100306.03
2022-11-25T04:01:53.820Z,100318.19
2022-11-25T04:07:58.698Z,100335.47
2022-11-25T04:14:02.402Z,100343.75
2022-11-25T04:20:05.868Z,100344.06
2022-11-25T04:26:10.035Z,100357.38
2022-11-25T04:32:17.894Z,100358.63
2022-11-25T04:38:20.998Z,100352.63
2022-11-25T04:44:24.128Z,100353.38
2022-11-25T04:50:28.554Z,100364.66
2022-11-25T04:56:42.852Z,100374.16
2022-11-25T05:02:45.427Z,100381.84
2022-11-25T05:08:54.627Z,100383.06
2022-11-25T05:14:59.075Z,100396.19
2022-11-25T05:21:04.085Z,100413.75
